Change the Weather History Date:

Thursday, October 18, 2012

  Actual Average Record
Temperature  
Mean Temperature 38 °F -  
Max Temperature 48 °F 54 °F 82 °F (2003)
Min Temperature 28 °F 31 °F 17 °F (2006)
Degree Days  
Heating Degree Days 27    
Moisture  
Dew Point 27 °F    
Average Humidity 64    
Maximum Humidity 86    
Minimum Humidity 46    
Precipitation  
Precipitation 0.00 in - - ()
Sea Level Pressure  
Sea Level Pressure 30.00 in    
Wind  
Wind Speed 24 mph (NW)    
Max Wind Speed 36 mph    
Max Gust Speed 45 mph    
Visibility 10 miles    
Events      
Averages and records for this station are not official NWS values.
T = Trace of Precipitation, MM = Missing Value Source: NWS Daily Summary

Daily Weather History Graph

Daily Weather History Graph

Search for Another Location

Airport or City:

Trip Planner

Search our weather history database for the weather conditions in past years. The results will help you decide how hot, cold, wet, or windy it might be!

Date:

Astronomy

Oct. 18, 2012 Rise Set
Actual Time 7:22 AM MDT 6:05 PM MDT
Civil Twilight 6:51 AM MDT 6:36 PM MDT
Nautical Twilight 6:16 AM MDT 7:11 PM MDT
Astronomical Twilight 5:40 AM MDT 7:46 PM MDT
Moon 11:21 AM MDT (10/18) 8:27 PM MDT (10/18)
Length of Visible Light 11h 44m
Length of Day
10h 42m
Waxing Crescent, 15% of the Moon is Illuminated
Oct 18
Waxing Crescent
Oct 21
First Quarter
Oct 29
Full
Nov 6
Last Quarter
Nov 13
New

Hourly Weather History & Observations

Time (MDT) Temp. Windchill Dew Point Humidity Pressure Visibility Wind Dir Wind Speed Gust Speed Precip Events Conditions
12:15 AM 41.0 °F 30.2 °F 23.0 °F 49% 29.83 in 10.0 mi WNW 27.6 mph 41.4 mph N/A   Overcast
12:35 AM 41.0 °F 29.7 °F 24.8 °F 53% 29.83 in 10.0 mi WNW 31.1 mph 40.3 mph N/A   Overcast
12:55 AM 41.0 °F 29.0 °F 24.8 °F 53% 29.83 in 10.0 mi WNW 35.7 mph 44.9 mph N/A   Overcast
1:15 AM 39.2 °F 27.8 °F 24.8 °F 56% 29.84 in 10.0 mi WNW 27.6 mph 43.7 mph N/A   Overcast
1:35 AM 39.2 °F 27.0 °F 24.8 °F 56% 29.85 in 10.0 mi WNW 32.2 mph 44.9 mph N/A   Mostly Cloudy
1:55 AM 39.2 °F 27.8 °F 24.8 °F 56% 29.86 in 10.0 mi WNW 27.6 mph 40.3 mph N/A   Overcast
2:15 AM 39.2 °F 27.4 °F 26.6 °F 61% 29.86 in 10.0 mi WNW 29.9 mph 41.4 mph N/A   Overcast
2:35 AM 39.2 °F 28.0 °F 26.6 °F 61% 29.87 in 10.0 mi NW 26.5 mph 43.7 mph N/A   Mostly Cloudy
2:55 AM 39.2 °F 27.2 °F 26.6 °F 61% 29.88 in 10.0 mi NW 31.1 mph 43.7 mph N/A   Mostly Cloudy
3:15 AM 39.2 °F 26.8 °F 28.4 °F 65% 29.88 in 10.0 mi NW 33.4 mph 41.4 mph N/A   Mostly Cloudy
3:35 AM 39.2 °F 27.8 °F 28.4 °F 65% 29.89 in 10.0 mi NW 27.6 mph 43.7 mph N/A   Overcast
3:55 AM 39.2 °F 27.4 °F 28.4 °F 65% 29.90 in 10.0 mi NW 29.9 mph 39.1 mph N/A   Overcast
4:15 AM 39.2 °F 27.8 °F 28.4 °F 65% 29.90 in 10.0 mi WNW 27.6 mph 34.5 mph N/A   Overcast
4:35 AM 39.2 °F 28.3 °F 28.4 °F 65% 29.91 in 10.0 mi NW 25.3 mph 38.0 mph N/A   Overcast
4:55 AM 39.2 °F 29.0 °F 28.4 °F 65% 29.93 in 10.0 mi NW 21.9 mph 41.4 mph N/A   Overcast
5:15 AM 39.2 °F 28.5 °F 28.4 °F 65% 29.93 in 10.0 mi NW 24.2 mph 39.1 mph N/A   Overcast
5:35 AM 37.4 °F 25.6 °F 28.4 °F 70% 29.94 in 10.0 mi WNW 26.5 mph 32.2 mph N/A   Overcast
5:55 AM 37.4 °F 24.8 °F 28.4 °F 70% 29.95 in 10.0 mi WNW 31.1 mph 38.0 mph N/A   Overcast
6:15 AM 37.4 °F 26.4 °F 28.4 °F 70% 29.96 in 10.0 mi WNW 23.0 mph 33.4 mph N/A   Overcast
6:35 AM 37.4 °F 25.6 °F 28.4 °F 70% 29.97 in 10.0 mi WNW 26.5 mph 34.5 mph N/A   Overcast
6:55 AM 37.4 °F 25.2 °F 28.4 °F 70% 29.98 in 10.0 mi WNW 28.8 mph 35.7 mph N/A   Overcast
7:15 AM 35.6 °F 23.4 °F 28.4 °F 75% 29.98 in 10.0 mi WNW 25.3 mph 35.7 mph N/A   Overcast
7:35 AM 37.4 °F 25.9 °F 28.4 °F 70% 29.99 in 10.0 mi WNW 25.3 mph 33.4 mph N/A   Overcast
7:55 AM 37.4 °F 25.9 °F 28.4 °F 70% 30.00 in 10.0 mi NW 25.3 mph 33.4 mph N/A   Overcast
8:15 AM 37.4 °F 25.9 °F 28.4 °F 70% 30.01 in 10.0 mi NW 25.3 mph 33.4 mph N/A   Overcast
8:35 AM 37.4 °F 26.4 °F 28.4 °F 70% 30.02 in 10.0 mi WNW 23.0 mph 35.7 mph N/A   Overcast
8:55 AM 37.4 °F 24.8 °F 28.4 °F 70% 30.02 in 10.0 mi NW 31.1 mph 38.0 mph N/A   Overcast
9:15 AM 37.4 °F 25.2 °F 28.4 °F 70% 30.03 in 10.0 mi WNW 28.8 mph 35.7 mph N/A   Overcast
9:35 AM 37.4 °F 25.6 °F 28.4 °F 70% 30.03 in 10.0 mi WNW 26.5 mph 35.7 mph N/A   Overcast
9:55 AM 37.4 °F 25.4 °F 28.4 °F 70% 30.04 in 10.0 mi WNW 27.6 mph 36.8 mph N/A   Overcast
10:15 AM 37.4 °F 25.6 °F 28.4 °F 70% 30.04 in 10.0 mi NW 26.5 mph 34.5 mph N/A   Overcast
11:15 AM 39.2 °F 28.5 °F 28.4 °F 65% 30.07 in 10.0 mi WNW 24.2 mph 31.1 mph N/A   Overcast
11:35 AM 39.2 °F 28.5 °F 28.4 °F 65% 30.07 in 10.0 mi WNW 24.2 mph 29.9 mph N/A   Overcast
11:55 AM 41.0 °F 30.9 °F 28.4 °F 61% 30.06 in 10.0 mi NW 24.2 mph 32.2 mph N/A   Overcast
12:15 PM 42.8 °F 33.3 °F 30.2 °F 61% 30.06 in 10.0 mi NW 24.2 mph 28.8 mph N/A   Mostly Cloudy
1:15 PM 46.4 °F 38.3 °F 30.2 °F 53% 30.06 in 10.0 mi NW 23.0 mph 31.1 mph N/A   Partly Cloudy
1:35 PM 46.4 °F 37.7 °F 30.2 °F 53% 30.05 in 10.0 mi NW 26.5 mph 31.1 mph N/A   Partly Cloudy
1:55 PM 46.4 °F 38.5 °F 30.2 °F 53% 30.06 in 10.0 mi NW 21.9 mph 27.6 mph N/A   Partly Cloudy
2:15 PM 46.4 °F 37.7 °F 30.2 °F 53% 30.05 in 10.0 mi NW 26.5 mph 31.1 mph N/A   Partly Cloudy
2:35 PM 48.2 °F - 30.2 °F 50% 30.05 in 10.0 mi NW 23.0 mph 29.9 mph N/A   Clear
2:55 PM 48.2 °F - 30.2 °F 50% 30.04 in 10.0 mi NW 24.2 mph 31.1 mph N/A   Clear
3:15 PM 48.2 °F - 30.2 °F 50% 30.04 in 10.0 mi NW 25.3 mph 29.9 mph N/A   Clear
3:35 PM 48.2 °F - 28.4 °F 46% 30.05 in 10.0 mi NW 24.2 mph 27.6 mph N/A   Clear
4:15 PM 48.2 °F - 28.4 °F 46% 30.06 in 10.0 mi NW 18.4 mph 24.2 mph N/A   Clear
4:35 PM 48.2 °F - 28.4 °F 46% 30.05 in 10.0 mi NW 15.0 mph - N/A   Clear
4:55 PM 48.2 °F - 28.4 °F 46% 30.05 in 10.0 mi NW 18.4 mph - N/A   Clear
5:15 PM 46.4 °F 39.5 °F 28.4 °F 50% 30.06 in 10.0 mi WNW 17.3 mph 21.9 mph N/A   Clear
5:35 PM 46.4 °F 39.5 °F 26.6 °F 46% 30.06 in 10.0 mi WNW 17.3 mph - N/A   Clear
5:55 PM 44.6 °F 38.8 °F 26.6 °F 49% 30.05 in 10.0 mi NW 11.5 mph - N/A   Clear
6:15 PM 42.8 °F 37.5 °F 26.6 °F 53% 30.06 in 10.0 mi WNW 9.2 mph - N/A   Clear
6:35 PM 39.2 °F 33.0 °F 26.6 °F 61% 30.06 in 10.0 mi WNW 9.2 mph - N/A   Clear
6:55 PM 37.4 °F 31.4 °F 26.6 °F 65% 30.07 in 10.0 mi NNW 8.1 mph - N/A   Clear
7:15 PM 37.4 °F 31.4 °F 26.6 °F 65% 30.06 in 10.0 mi NNW 8.1 mph - N/A   Clear
7:35 PM 35.6 °F 29.2 °F 26.6 °F 70% 30.06 in 10.0 mi NNW 8.1 mph - N/A   Clear
7:55 PM 35.6 °F 29.2 °F 24.8 °F 65% 30.06 in 10.0 mi NNW 8.1 mph - N/A   Clear
8:15 PM 33.8 °F 27.0 °F 26.6 °F 75% 30.06 in 10.0 mi North 8.1 mph - N/A   Clear
8:35 PM 30.2 °F 23.4 °F 23.0 °F 75% 30.07 in 10.0 mi NNW 6.9 mph - N/A   Clear
8:55 PM 30.2 °F 25.4 °F 23.0 °F 75% 30.07 in 10.0 mi NW 4.6 mph - N/A   Clear
9:15 PM 33.8 °F 30.8 °F 26.6 °F 75% 30.06 in 10.0 mi NW 3.5 mph - N/A   Clear
9:35 PM 32.0 °F 27.5 °F 26.6 °F 80% 30.06 in 10.0 mi NW 4.6 mph - N/A   Clear
10:35 PM 28.4 °F 23.3 °F 24.8 °F 86% 30.05 in 10.0 mi NW 4.6 mph - N/A   Clear
10:55 PM 28.4 °F - 23.0 °F 80% 30.05 in 10.0 mi Calm Calm - N/A   Clear
11:15 PM 28.4 °F 22.2 °F 21.2 °F 74% 30.04 in 10.0 mi NNW 5.8 mph - N/A   Clear
11:35 PM 28.4 °F 23.3 °F 24.8 °F 86% 30.03 in 10.0 mi NW 4.6 mph - N/A   Clear
11:55 PM 28.4 °F 22.2 °F 24.8 °F 86% 30.03 in 10.0 mi NW 5.8 mph - N/A   Clear